sensor_id;sensor_type;location;lat;lon;timestamp;temperature;humidity
26541;DHT22;14206;50.202;10.948;2022-10-15T00:01:21;14.50;96.60
26541;DHT22;14206;50.202;10.948;2022-10-15T00:04:09;14.50;96.60
26541;DHT22;14206;50.202;10.948;2022-10-15T00:06:35;14.50;96.60
26541;DHT22;14206;50.202;10.948;2022-10-15T00:09:02;14.50;96.60
26541;DHT22;14206;50.202;10.948;2022-10-15T00:11:29;14.50;96.60
26541;DHT22;14206;50.202;10.948;2022-10-15T00:13:58;14.50;96.60
26541;DHT22;14206;50.202;10.948;2022-10-15T00:16:27;14.40;96.60
26541;DHT22;14206;50.202;10.948;2022-10-15T00:18:55;14.40;96.60
26541;DHT22;14206;50.202;10.948;2022-10-15T00:21:23;14.40;96.60
26541;DHT22;14206;50.202;10.948;2022-10-15T00:23:50;14.40;96.60
26541;DHT22;14206;50.202;10.948;2022-10-15T00:26:20;14.40;96.60
26541;DHT22;14206;50.202;10.948;2022-10-15T00:28:53;14.40;96.60
26541;DHT22;14206;50.202;10.948;2022-10-15T00:31:22;14.40;96.60
26541;DHT22;14206;50.202;10.948;2022-10-15T00:33:50;14.40;96.60
26541;DHT22;14206;50.202;10.948;2022-10-15T00:36:23;14.40;96.60
26541;DHT22;14206;50.202;10.948;2022-10-15T00:38:51;14.40;96.60
26541;DHT22;14206;50.202;10.948;2022-10-15T00:41:26;14.40;96.60
26541;DHT22;14206;50.202;10.948;2022-10-15T00:43:59;14.40;96.60
26541;DHT22;14206;50.202;10.948;2022-10-15T00:46:31;14.40;96.60
26541;DHT22;14206;50.202;10.948;2022-10-15T00:52:15;14.40;96.60
26541;DHT22;14206;50.202;10.948;2022-10-15T00:54:47;14.40;96.60
26541;DHT22;14206;50.202;10.948;2022-10-15T00:57:15;14.40;96.60
26541;DHT22;14206;50.202;10.948;2022-10-15T00:59:44;14.40;96.60
26541;DHT22;14206;50.202;10.948;2022-10-15T01:02:16;14.50;96.60
26541;DHT22;14206;50.202;10.948;2022-10-15T01:04:44;14.50;96.60
26541;DHT22;14206;50.202;10.948;2022-10-15T01:07:11;14.50;96.60
26541;DHT22;14206;50.202;10.948;2022-10-15T01:09:39;14.50;96.60
26541;DHT22;14206;50.202;10.948;2022-10-15T01:17:43;14.60;96.60
26541;DHT22;14206;50.202;10.948;2022-10-15T01:32:40;14.70;96.60
26541;DHT22;14206;50.202;10.948;2022-10-15T01:40:56;14.80;96.60
26541;DHT22;14206;50.202;10.948;2022-10-15T01:46:46;14.80;96.60
26541;DHT22;14206;50.202;10.948;2022-10-15T01:49:21;14.90;96.60
26541;DHT22;14206;50.202;10.948;2022-10-15T01:51:56;14.90;96.60
26541;DHT22;14206;50.202;10.948;2022-10-15T01:54:25;14.90;96.60
26541;DHT22;14206;50.202;10.948;2022-10-15T01:56:54;14.90;96.60
26541;DHT22;14206;50.202;10.948;2022-10-15T01:59:26;14.90;96.60
26541;DHT22;14206;50.202;10.948;2022-10-15T02:01:54;14.80;96.60
26541;DHT22;14206;50.202;10.948;2022-10-15T02:04:29;14.80;96.60
26541;DHT22;14206;50.202;10.948;2022-10-15T02:07:48;14.80;96.60
26541;DHT22;14206;50.202;10.948;2022-10-15T02:10:13;14.90;96.60
26541;DHT22;14206;50.202;10.948;2022-10-15T02:20:57;15.00;96.60
26541;DHT22;14206;50.202;10.948;2022-10-15T02:26:09;15.00;96.60
26541;DHT22;14206;50.202;10.948;2022-10-15T02:28:39;14.90;96.60
26541;DHT22;14206;50.202;10.948;2022-10-15T02:31:09;14.90;96.60
26541;DHT22;14206;50.202;10.948;2022-10-15T02:33:45;14.90;96.60
26541;DHT22;14206;50.202;10.948;2022-10-15T02:36:13;14.90;96.60
26541;DHT22;14206;50.202;10.948;2022-10-15T02:38:42;14.90;96.60
26541;DHT22;14206;50.202;10.948;2022-10-15T02:41:11;14.90;96.60
26541;DHT22;14206;50.202;10.948;2022-10-15T02:43:40;14.90;96.60
26541;DHT22;14206;50.202;10.948;2022-10-15T02:46:12;14.90;96.60
26541;DHT22;14206;50.202;10.948;2022-10-15T02:48:41;14.90;96.60
26541;DHT22;14206;50.202;10.948;2022-10-15T02:51:07;14.90;96.60
26541;DHT22;14206;50.202;10.948;2022-10-15T02:53:34;14.90;96.60
26541;DHT22;14206;50.202;10.948;2022-10-15T02:56:02;14.90;96.60
26541;DHT22;14206;50.202;10.948;2022-10-15T02:58:30;14.90;96.60
26541;DHT22;14206;50.202;10.948;2022-10-15T03:00:58;14.80;96.60
26541;DHT22;14206;50.202;10.948;2022-10-15T03:03:25;14.80;96.60
26541;DHT22;14206;50.202;10.948;2022-10-15T03:05:52;14.90;96.60
26541;DHT22;14206;50.202;10.948;2022-10-15T03:08:19;14.90;96.60
26541;DHT22;14206;50.202;10.948;2022-10-15T03:10:49;14.90;96.60
26541;DHT22;14206;50.202;10.948;2022-10-15T03:13:16;14.90;96.60
26541;DHT22;14206;50.202;10.948;2022-10-15T03:15:48;15.00;96.60
26541;DHT22;14206;50.202;10.948;2022-10-15T03:18:14;15.00;96.60
26541;DHT22;14206;50.202;10.948;2022-10-15T03:20:42;15.00;96.60
26541;DHT22;14206;50.202;10.948;2022-10-15T03:23:09;15.00;96.60
26541;DHT22;14206;50.202;10.948;2022-10-15T03:25:36;15.00;96.60
26541;DHT22;14206;50.202;10.948;2022-10-15T03:28:04;15.00;96.60
26541;DHT22;14206;50.202;10.948;2022-10-15T03:30:41;15.00;96.60
26541;DHT22;14206;50.202;10.948;2022-10-15T03:33:09;15.00;96.60
26541;DHT22;14206;50.202;10.948;2022-10-15T03:35:37;15.00;96.60
26541;DHT22;14206;50.202;10.948;2022-10-15T03:38:05;14.90;96.60
26541;DHT22;14206;50.202;10.948;2022-10-15T03:40:33;14.90;96.60
26541;DHT22;14206;50.202;10.948;2022-10-15T03:43:14;14.90;96.60
26541;DHT22;14206;50.202;10.948;2022-10-15T03:45:41;14.90;96.60
26541;DHT22;14206;50.202;10.948;2022-10-15T03:48:18;14.90;96.60
26541;DHT22;14206;50.202;10.948;2022-10-15T03:50:58;15.00;96.60
26541;DHT22;14206;50.202;10.948;2022-10-15T03:53:25;15.00;96.60
26541;DHT22;14206;50.202;10.948;2022-10-15T03:55:52;15.00;96.60
26541;DHT22;14206;50.202;10.948;2022-10-15T03:58:19;15.00;96.60
26541;DHT22;14206;50.202;10.948;2022-10-15T04:00:53;15.00;96.60
26541;DHT22;14206;50.202;10.948;2022-10-15T04:03:19;15.00;96.60
26541;DHT22;14206;50.202;10.948;2022-10-15T04:05:53;15.00;96.60
26541;DHT22;14206;50.202;10.948;2022-10-15T04:08:25;15.10;96.60
26541;DHT22;14206;50.202;10.948;2022-10-15T04:10:53;15.10;96.60
26541;DHT22;14206;50.202;10.948;2022-10-15T04:13:20;15.10;96.60
26541;DHT22;14206;50.202;10.948;2022-10-15T04:15:47;15.10;96.60
26541;DHT22;14206;50.202;10.948;2022-10-15T04:18:14;15.10;96.60
26541;DHT22;14206;50.202;10.948;2022-10-15T04:20:41;15.10;96.60
26541;DHT22;14206;50.202;10.948;2022-10-15T04:23:14;15.00;96.60
26541;DHT22;14206;50.202;10.948;2022-10-15T04:25:58;15.10;96.60
26541;DHT22;14206;50.202;10.948;2022-10-15T04:28:26;15.10;96.60
26541;DHT22;14206;50.202;10.948;2022-10-15T04:30:58;15.10;96.60
26541;DHT22;14206;50.202;10.948;2022-10-15T04:33:26;15.10;96.60
26541;DHT22;14206;50.202;10.948;2022-10-15T04:36:04;15.10;96.60
26541;DHT22;14206;50.202;10.948;2022-10-15T04:38:52;15.10;96.60
26541;DHT22;14206;50.202;10.948;2022-10-15T04:41:34;15.10;96.60
26541;DHT22;14206;50.202;10.948;2022-10-15T04:44:04;15.00;96.60
26541;DHT22;14206;50.202;10.948;2022-10-15T04:46:31;15.00;96.60
26541;DHT22;14206;50.202;10.948;2022-10-15T04:49:06;15.00;96.60
26541;DHT22;14206;50.202;10.948;2022-10-15T04:51:32;15.10;96.60
26541;DHT22;14206;50.202;10.948;2022-10-15T04:54:05;15.10;96.60
26541;DHT22;14206;50.202;10.948;2022-10-15T04:56:34;15.20;96.60
26541;DHT22;14206;50.202;10.948;2022-10-15T04:59:04;15.20;96.60
26541;DHT22;14206;50.202;10.948;2022-10-15T05:01:43;15.20;96.60
26541;DHT22;14206;50.202;10.948;2022-10-15T05:04:10;15.10;96.60
26541;DHT22;14206;50.202;10.948;2022-10-15T05:06:49;15.10;96.60
26541;DHT22;14206;50.202;10.948;2022-10-15T05:09:18;15.10;96.60
26541;DHT22;14206;50.202;10.948;2022-10-15T05:11:48;15.10;96.60
26541;DHT22;14206;50.202;10.948;2022-10-15T05:14:35;15.10;96.60
26541;DHT22;14206;50.202;10.948;2022-10-15T05:17:16;15.10;96.60
26541;DHT22;14206;50.202;10.948;2022-10-15T05:19:43;15.10;96.60
26541;DHT22;14206;50.202;10.948;2022-10-15T05:22:17;15.10;96.60
26541;DHT22;14206;50.202;10.948;2022-10-15T05:24:53;15.10;96.60
26541;DHT22;14206;50.202;10.948;2022-10-15T05:27:29;15.20;96.60
26541;DHT22;14206;50.202;10.948;2022-10-15T05:30:00;15.20;96.60
26541;DHT22;14206;50.202;10.948;2022-10-15T05:32:39;15.20;96.60
26541;DHT22;14206;50.202;10.948;2022-10-15T05:35:09;15.20;96.60
26541;DHT22;14206;50.202;10.948;2022-10-15T05:37:50;15.20;96.60
26541;DHT22;14206;50.202;10.948;2022-10-15T05:40:17;15.20;96.60
26541;DHT22;14206;50.202;10.948;2022-10-15T05:43:00;15.20;96.60
26541;DHT22;14206;50.202;10.948;2022-10-15T05:45:27;15.20;96.60
26541;DHT22;14206;50.202;10.948;2022-10-15T05:47:57;15.20;96.60
26541;DHT22;14206;50.202;10.948;2022-10-15T05:50:23;15.20;96.60
26541;DHT22;14206;50.202;10.948;2022-10-15T05:52:54;15.20;96.60
26541;DHT22;14206;50.202;10.948;2022-10-15T05:55:32;15.30;96.60
26541;DHT22;14206;50.202;10.948;2022-10-15T05:58:00;15.30;96.60
26541;DHT22;14206;50.202;10.948;2022-10-15T06:00:28;15.30;96.60
26541;DHT22;14206;50.202;10.948;2022-10-15T06:02:55;15.30;96.60
26541;DHT22;14206;50.202;10.948;2022-10-15T06:05:23;15.30;96.60
26541;DHT22;14206;50.202;10.948;2022-10-15T06:07:50;15.30;96.60
26541;DHT22;14206;50.202;10.948;2022-10-15T06:10:17;15.20;96.60
26541;DHT22;14206;50.202;10.948;2022-10-15T06:12:49;15.20;96.60
26541;DHT22;14206;50.202;10.948;2022-10-15T06:15:17;15.10;96.60
26541;DHT22;14206;50.202;10.948;2022-10-15T06:17:44;15.10;96.60
26541;DHT22;14206;50.202;10.948;2022-10-15T06:20:12;15.10;96.60
26541;DHT22;14206;50.202;10.948;2022-10-15T06:22:38;15.10;96.60
26541;DHT22;14206;50.202;10.948;2022-10-15T06:25:06;15.00;96.60
26541;DHT22;14206;50.202;10.948;2022-10-15T06:27:33;15.00;96.60
26541;DHT22;14206;50.202;10.948;2022-10-15T06:30:00;15.00;96.60
26541;DHT22;14206;50.202;10.948;2022-10-15T06:32:27;15.10;96.60
26541;DHT22;14206;50.202;10.948;2022-10-15T06:34:53;15.10;96.60
26541;DHT22;14206;50.202;10.948;2022-10-15T06:37:21;15.20;96.60
26541;DHT22;14206;50.202;10.948;2022-10-15T06:39:49;15.20;96.60
26541;DHT22;14206;50.202;10.948;2022-10-15T06:42:17;15.30;96.60
26541;DHT22;14206;50.202;10.948;2022-10-15T06:44:46;15.30;96.60
26541;DHT22;14206;50.202;10.948;2022-10-15T06:47:15;15.40;96.60
26541;DHT22;14206;50.202;10.948;2022-10-15T06:49:52;15.50;96.60
26541;DHT22;14206;50.202;10.948;2022-10-15T06:52:22;15.50;96.60
26541;DHT22;14206;50.202;10.948;2022-10-15T06:54:50;15.50;96.60
26541;DHT22;14206;50.202;10.948;2022-10-15T06:57:20;15.60;96.60
26541;DHT22;14206;50.202;10.948;2022-10-15T06:59:47;15.70;96.60
26541;DHT22;14206;50.202;10.948;2022-10-15T07:02:14;15.80;96.60
26541;DHT22;14206;50.202;10.948;2022-10-15T07:04:41;15.90;96.60
26541;DHT22;14206;50.202;10.948;2022-10-15T07:07:14;15.90;96.60
26541;DHT22;14206;50.202;10.948;2022-10-15T07:09:41;15.90;96.60
26541;DHT22;14206;50.202;10.948;2022-10-15T07:12:08;15.90;96.60
26541;DHT22;14206;50.202;10.948;2022-10-15T07:14:41;15.90;96.60
26541;DHT22;14206;50.202;10.948;2022-10-15T07:17:09;15.90;96.60
26541;DHT22;14206;50.202;10.948;2022-10-15T07:19:36;15.90;96.60
26541;DHT22;14206;50.202;10.948;2022-10-15T07:22:03;16.00;96.60
26541;DHT22;14206;50.202;10.948;2022-10-15T07:24:30;16.00;96.60
26541;DHT22;14206;50.202;10.948;2022-10-15T07:27:00;16.00;96.60
26541;DHT22;14206;50.202;10.948;2022-10-15T07:29:34;16.10;96.60
26541;DHT22;14206;50.202;10.948;2022-10-15T07:32:03;16.10;96.60
26541;DHT22;14206;50.202;10.948;2022-10-15T07:34:30;16.10;96.60
26541;DHT22;14206;50.202;10.948;2022-10-15T07:36:57;16.00;96.60
26541;DHT22;14206;50.202;10.948;2022-10-15T07:39:24;16.10;96.60
26541;DHT22;14206;50.202;10.948;2022-10-15T07:41:50;16.00;96.60
26541;DHT22;14206;50.202;10.948;2022-10-15T07:44:17;16.00;96.60
26541;DHT22;14206;50.202;10.948;2022-10-15T07:46:46;16.00;96.60
26541;DHT22;14206;50.202;10.948;2022-10-15T07:49:13;16.00;96.60
26541;DHT22;14206;50.202;10.948;2022-10-15T07:51:41;16.00;96.60
26541;DHT22;14206;50.202;10.948;2022-10-15T07:54:08;16.00;96.60
26541;DHT22;14206;50.202;10.948;2022-10-15T07:56:35;16.00;96.60
26541;DHT22;14206;50.202;10.948;2022-10-15T07:59:02;16.00;96.60
26541;DHT22;14206;50.202;10.948;2022-10-15T08:01:29;16.00;96.60
26541;DHT22;14206;50.202;10.948;2022-10-15T08:03:56;16.00;96.60
26541;DHT22;14206;50.202;10.948;2022-10-15T08:06:23;16.00;96.60
26541;DHT22;14206;50.202;10.948;2022-10-15T08:08:56;16.00;96.60
26541;DHT22;14206;50.202;10.948;2022-10-15T08:11:27;15.90;96.60
26541;DHT22;14206;50.202;10.948;2022-10-15T08:13:54;16.00;96.60
26541;DHT22;14206;50.202;10.948;2022-10-15T08:16:21;16.00;96.60
26541;DHT22;14206;50.202;10.948;2022-10-15T08:18:57;15.90;96.60
26541;DHT22;14206;50.202;10.948;2022-10-15T08:21:24;16.00;96.60
26541;DHT22;14206;50.202;10.948;2022-10-15T08:23:51;16.10;96.60
26541;DHT22;14206;50.202;10.948;2022-10-15T08:26:28;16.20;96.60
26541;DHT22;14206;50.202;10.948;2022-10-15T08:28:55;16.20;96.60
26541;DHT22;14206;50.202;10.948;2022-10-15T08:31:22;16.30;96.60
26541;DHT22;14206;50.202;10.948;2022-10-15T08:33:49;16.30;96.60
26541;DHT22;14206;50.202;10.948;2022-10-15T08:36:15;16.30;96.60
26541;DHT22;14206;50.202;10.948;2022-10-15T08:38:43;16.40;96.60
26541;DHT22;14206;50.202;10.948;2022-10-15T08:41:39;16.50;96.60
26541;DHT22;14206;50.202;10.948;2022-10-15T08:44:25;16.60;96.60
26541;DHT22;14206;50.202;10.948;2022-10-15T08:47:01;16.60;96.60
26541;DHT22;14206;50.202;10.948;2022-10-15T08:49:49;16.60;96.60
26541;DHT22;14206;50.202;10.948;2022-10-15T08:52:28;16.70;96.60
26541;DHT22;14206;50.202;10.948;2022-10-15T08:55:01;16.70;96.60
26541;DHT22;14206;50.202;10.948;2022-10-15T09:00:29;16.80;96.60
26541;DHT22;14206;50.202;10.948;2022-10-15T09:03:30;16.80;96.60
26541;DHT22;14206;50.202;10.948;2022-10-15T09:06:12;16.80;96.60
26541;DHT22;14206;50.202;10.948;2022-10-15T09:12:25;16.80;96.60
26541;DHT22;14206;50.202;10.948;2022-10-15T09:14:33;16.60;96.60
26541;DHT22;14206;50.202;10.948;2022-10-15T09:17:21;16.50;96.60
26541;DHT22;14206;50.202;10.948;2022-10-15T09:19:55;16.50;96.60
26541;DHT22;14206;50.202;10.948;2022-10-15T09:22:28;16.50;96.60
26541;DHT22;14206;50.202;10.948;2022-10-15T09:24:55;16.60;96.60
26541;DHT22;14206;50.202;10.948;2022-10-15T09:27:33;16.60;96.60
26541;DHT22;14206;50.202;10.948;2022-10-15T09:30:04;16.70;96.60
26541;DHT22;14206;50.202;10.948;2022-10-15T09:32:43;16.70;96.60
26541;DHT22;14206;50.202;10.948;2022-10-15T09:38:31;16.80;96.60
26541;DHT22;14206;50.202;10.948;2022-10-15T09:41:25;16.90;96.60
26541;DHT22;14206;50.202;10.948;2022-10-15T09:43:56;17.00;96.60
26541;DHT22;14206;50.202;10.948;2022-10-15T09:46:28;17.10;96.60
26541;DHT22;14206;50.202;10.948;2022-10-15T09:49:17;17.10;96.60
26541;DHT22;14206;50.202;10.948;2022-10-15T09:55:09;17.30;96.60
26541;DHT22;14206;50.202;10.948;2022-10-15T09:57:41;17.40;96.60
26541;DHT22;14206;50.202;10.948;2022-10-15T10:00:13;17.60;96.60
26541;DHT22;14206;50.202;10.948;2022-10-15T10:03:03;17.70;96.60
26541;DHT22;14206;50.202;10.948;2022-10-15T10:05:35;17.60;96.60
26541;DHT22;14206;50.202;10.948;2022-10-15T10:08:21;17.70;96.60
26541;DHT22;14206;50.202;10.948;2022-10-15T10:11:03;17.70;96.60
26541;DHT22;14206;50.202;10.948;2022-10-15T10:16:22;17.70;96.60
26541;DHT22;14206;50.202;10.948;2022-10-15T10:19:11;17.80;96.60
26541;DHT22;14206;50.202;10.948;2022-10-15T10:21:40;17.90;96.60
26541;DHT22;14206;50.202;10.948;2022-10-15T10:24:27;18.00;96.60
26541;DHT22;14206;50.202;10.948;2022-10-15T10:26:57;18.30;96.60
26541;DHT22;14206;50.202;10.948;2022-10-15T10:29:25;18.50;96.60
26541;DHT22;14206;50.202;10.948;2022-10-15T10:32:12;18.50;96.60
26541;DHT22;14206;50.202;10.948;2022-10-15T10:34:43;18.50;96.40
26541;DHT22;14206;50.202;10.948;2022-10-15T10:37:17;18.50;95.70
26541;DHT22;14206;50.202;10.948;2022-10-15T10:39:44;18.40;96.40
26541;DHT22;14206;50.202;10.948;2022-10-15T10:44:45;18.60;95.80
26541;DHT22;14206;50.202;10.948;2022-10-15T10:47:24;18.60;95.90
26541;DHT22;14206;50.202;10.948;2022-10-15T10:49:57;18.70;95.20
26541;DHT22;14206;50.202;10.948;2022-10-15T10:52:29;18.80;94.50
26541;DHT22;14206;50.202;10.948;2022-10-15T10:55:09;18.80;94.60
26541;DHT22;14206;50.202;10.948;2022-10-15T10:57:55;19.00;95.10
26541;DHT22;14206;50.202;10.948;2022-10-15T11:11:36;20.80;90.00
26541;DHT22;14206;50.202;10.948;2022-10-15T11:17:10;21.50;88.50
26541;DHT22;14206;50.202;10.948;2022-10-15T11:19:40;21.60;88.60
26541;DHT22;14206;50.202;10.948;2022-10-15T11:41:56;20.80;88.60
26541;DHT22;14206;50.202;10.948;2022-10-15T11:44:53;20.90;89.60
26541;DHT22;14206;50.202;10.948;2022-10-15T11:47:46;20.70;87.40
26541;DHT22;14206;50.202;10.948;2022-10-15T11:50:27;20.50;88.10
26541;DHT22;14206;50.202;10.948;2022-10-15T11:56:13;20.20;89.60
26541;DHT22;14206;50.202;10.948;2022-10-15T12:01:34;20.20;89.90
26541;DHT22;14206;50.202;10.948;2022-10-15T12:04:16;20.20;89.00
26541;DHT22;14206;50.202;10.948;2022-10-15T12:06:49;20.10;89.50
26541;DHT22;14206;50.202;10.948;2022-10-15T12:09:31;19.80;90.00
26541;DHT22;14206;50.202;10.948;2022-10-15T12:15:23;19.40;92.40
26541;DHT22;14206;50.202;10.948;2022-10-15T12:17:54;19.30;93.40
26541;DHT22;14206;50.202;10.948;2022-10-15T12:20:25;19.20;92.60
26541;DHT22;14206;50.202;10.948;2022-10-15T12:23:01;19.10;93.90
26541;DHT22;14206;50.202;10.948;2022-10-15T12:28:15;18.80;93.80
26541;DHT22;14206;50.202;10.948;2022-10-15T12:30:52;18.80;93.90
26541;DHT22;14206;50.202;10.948;2022-10-15T12:33:43;18.60;94.00
26541;DHT22;14206;50.202;10.948;2022-10-15T12:39:01;18.70;94.20
26541;DHT22;14206;50.202;10.948;2022-10-15T12:41:48;18.70;93.80
26541;DHT22;14206;50.202;10.948;2022-10-15T12:44:22;18.80;94.50
26541;DHT22;14206;50.202;10.948;2022-10-15T12:46:50;18.90;94.10
26541;DHT22;14206;50.202;10.948;2022-10-15T12:51:54;18.90;92.90
26541;DHT22;14206;50.202;10.948;2022-10-15T12:54:43;18.90;93.90
26541;DHT22;14206;50.202;10.948;2022-10-15T13:02:54;18.90;93.60
26541;DHT22;14206;50.202;10.948;2022-10-15T13:05:31;18.80;93.90
26541;DHT22;14206;50.202;10.948;2022-10-15T13:08:01;18.80;95.10
26541;DHT22;14206;50.202;10.948;2022-10-15T13:10:54;18.80;94.90
26541;DHT22;14206;50.202;10.948;2022-10-15T13:13:32;18.80;95.40
26541;DHT22;14206;50.202;10.948;2022-10-15T13:16:06;18.80;95.60
26541;DHT22;14206;50.202;10.948;2022-10-15T13:18:34;18.80;96.60
26541;DHT22;14206;50.202;10.948;2022-10-15T13:21:01;18.70;96.60
26541;DHT22;14206;50.202;10.948;2022-10-15T13:23:31;18.70;96.60
26541;DHT22;14206;50.202;10.948;2022-10-15T13:26:16;18.90;96.60
26541;DHT22;14206;50.202;10.948;2022-10-15T13:28:44;19.20;96.60
26541;DHT22;14206;50.202;10.948;2022-10-15T13:33:43;19.80;96.60
26541;DHT22;14206;50.202;10.948;2022-10-15T13:36:31;20.10;94.80
26541;DHT22;14206;50.202;10.948;2022-10-15T13:39:03;20.10;93.80
26541;DHT22;14206;50.202;10.948;2022-10-15T13:41:34;19.90;93.50
26541;DHT22;14206;50.202;10.948;2022-10-15T13:44:03;19.80;94.30
26541;DHT22;14206;50.202;10.948;2022-10-15T13:46:36;19.80;94.60
26541;DHT22;14206;50.202;10.948;2022-10-15T13:49:10;19.80;95.20
26541;DHT22;14206;50.202;10.948;2022-10-15T13:51:41;19.80;94.40
26541;DHT22;14206;50.202;10.948;2022-10-15T13:54:29;19.60;94.70
26541;DHT22;14206;50.202;10.948;2022-10-15T13:56:58;19.50;94.90
26541;DHT22;14206;50.202;10.948;2022-10-15T13:59:28;19.50;95.40
26541;DHT22;14206;50.202;10.948;2022-10-15T14:01:59;19.40;95.50
26541;DHT22;14206;50.202;10.948;2022-10-15T14:04:28;19.40;95.40
26541;DHT22;14206;50.202;10.948;2022-10-15T14:07:00;19.30;95.50
26541;DHT22;14206;50.202;10.948;2022-10-15T14:09:34;19.30;96.20
26541;DHT22;14206;50.202;10.948;2022-10-15T14:12:06;19.20;96.30
26541;DHT22;14206;50.202;10.948;2022-10-15T14:14:35;19.30;96.20
26541;DHT22;14206;50.202;10.948;2022-10-15T14:17:06;19.30;96.60
26541;DHT22;14206;50.202;10.948;2022-10-15T14:19:35;19.20;96.10
26541;DHT22;14206;50.202;10.948;2022-10-15T14:22:16;19.20;96.60
26541;DHT22;14206;50.202;10.948;2022-10-15T14:24:51;19.20;95.70
26541;DHT22;14206;50.202;10.948;2022-10-15T14:27:24;19.20;95.60
26541;DHT22;14206;50.202;10.948;2022-10-15T14:32:22;19.10;95.40
26541;DHT22;14206;50.202;10.948;2022-10-15T14:34:57;19.10;95.90
26541;DHT22;14206;50.202;10.948;2022-10-15T14:43:19;19.40;95.50
26541;DHT22;14206;50.202;10.948;2022-10-15T14:45:54;19.50;95.20
26541;DHT22;14206;50.202;10.948;2022-10-15T14:48:27;19.60;94.60
26541;DHT22;14206;50.202;10.948;2022-10-15T14:50:59;19.50;94.80
26541;DHT22;14206;50.202;10.948;2022-10-15T14:53:31;19.40;94.40
26541;DHT22;14206;50.202;10.948;2022-10-15T14:56:23;19.30;94.80
26541;DHT22;14206;50.202;10.948;2022-10-15T14:58:53;19.20;95.40
26541;DHT22;14206;50.202;10.948;2022-10-15T15:01:25;19.10;94.80
26541;DHT22;14206;50.202;10.948;2022-10-15T15:03:54;19.10;95.30
26541;DHT22;14206;50.202;10.948;2022-10-15T15:06:22;19.00;95.80
26541;DHT22;14206;50.202;10.948;2022-10-15T15:08:49;18.90;96.40
26541;DHT22;14206;50.202;10.948;2022-10-15T15:11:21;18.90;96.00
26541;DHT22;14206;50.202;10.948;2022-10-15T15:13:49;18.80;96.20
26541;DHT22;14206;50.202;10.948;2022-10-15T15:16:29;18.70;96.50
26541;DHT22;14206;50.202;10.948;2022-10-15T15:18:56;18.70;96.60
26541;DHT22;14206;50.202;10.948;2022-10-15T15:21:23;18.60;96.60
26541;DHT22;14206;50.202;10.948;2022-10-15T15:23:51;18.50;96.60
26541;DHT22;14206;50.202;10.948;2022-10-15T15:26:18;18.50;96.60
26541;DHT22;14206;50.202;10.948;2022-10-15T15:28:45;18.40;96.60
26541;DHT22;14206;50.202;10.948;2022-10-15T15:31:15;18.40;96.60
26541;DHT22;14206;50.202;10.948;2022-10-15T15:33:42;18.40;96.60
26541;DHT22;14206;50.202;10.948;2022-10-15T15:36:12;18.30;96.60
26541;DHT22;14206;50.202;10.948;2022-10-15T15:38:46;18.30;96.60
26541;DHT22;14206;50.202;10.948;2022-10-15T15:41:22;18.20;96.60
26541;DHT22;14206;50.202;10.948;2022-10-15T15:43:51;18.20;96.60
26541;DHT22;14206;50.202;10.948;2022-10-15T15:46:19;18.10;96.60
26541;DHT22;14206;50.202;10.948;2022-10-15T15:48:52;18.10;96.60
26541;DHT22;14206;50.202;10.948;2022-10-15T15:51:20;18.10;96.60
26541;DHT22;14206;50.202;10.948;2022-10-15T15:53:47;18.10;96.60
26541;DHT22;14206;50.202;10.948;2022-10-15T15:56:14;18.10;96.60
26541;DHT22;14206;50.202;10.948;2022-10-15T15:58:41;18.10;96.60
26541;DHT22;14206;50.202;10.948;2022-10-15T16:01:08;18.10;96.60
26541;DHT22;14206;50.202;10.948;2022-10-15T16:03:35;18.10;96.60
26541;DHT22;14206;50.202;10.948;2022-10-15T16:06:06;18.10;96.60
26541;DHT22;14206;50.202;10.948;2022-10-15T16:08:34;18.10;96.60
26541;DHT22;14206;50.202;10.948;2022-10-15T16:11:03;18.00;96.60
26541;DHT22;14206;50.202;10.948;2022-10-15T16:13:30;18.00;96.60
26541;DHT22;14206;50.202;10.948;2022-10-15T16:15:57;18.10;96.60
26541;DHT22;14206;50.202;10.948;2022-10-15T16:18:24;18.10;96.60
26541;DHT22;14206;50.202;10.948;2022-10-15T16:20:52;18.00;96.60
26541;DHT22;14206;50.202;10.948;2022-10-15T16:23:18;18.00;96.60
26541;DHT22;14206;50.202;10.948;2022-10-15T16:25:45;18.00;96.60
26541;DHT22;14206;50.202;10.948;2022-10-15T16:28:12;18.00;96.60
26541;DHT22;14206;50.202;10.948;2022-10-15T16:30:39;17.90;96.60
26541;DHT22;14206;50.202;10.948;2022-10-15T16:33:06;17.80;96.60
26541;DHT22;14206;50.202;10.948;2022-10-15T16:35:34;17.70;96.60
26541;DHT22;14206;50.202;10.948;2022-10-15T16:38:01;17.70;96.60
26541;DHT22;14206;50.202;10.948;2022-10-15T16:40:28;17.70;96.60
26541;DHT22;14206;50.202;10.948;2022-10-15T16:42:55;17.60;96.60
26541;DHT22;14206;50.202;10.948;2022-10-15T16:45:22;17.50;96.60
26541;DHT22;14206;50.202;10.948;2022-10-15T16:48:09;17.40;96.60
26541;DHT22;14206;50.202;10.948;2022-10-15T16:50:36;17.40;96.60
26541;DHT22;14206;50.202;10.948;2022-10-15T16:53:03;17.30;96.60
26541;DHT22;14206;50.202;10.948;2022-10-15T16:55:30;17.30;96.60
26541;DHT22;14206;50.202;10.948;2022-10-15T16:57:57;17.30;96.60
26541;DHT22;14206;50.202;10.948;2022-10-15T17:00:24;17.30;96.60
26541;DHT22;14206;50.202;10.948;2022-10-15T17:02:51;17.30;96.60
26541;DHT22;14206;50.202;10.948;2022-10-15T17:05:20;17.30;96.60
26541;DHT22;14206;50.202;10.948;2022-10-15T17:07:47;17.30;96.60
26541;DHT22;14206;50.202;10.948;2022-10-15T17:10:14;17.30;96.60
26541;DHT22;14206;50.202;10.948;2022-10-15T17:12:41;17.30;96.60
26541;DHT22;14206;50.202;10.948;2022-10-15T17:15:11;17.20;96.60
26541;DHT22;14206;50.202;10.948;2022-10-15T17:17:38;17.20;96.60
26541;DHT22;14206;50.202;10.948;2022-10-15T17:20:05;17.20;96.60
26541;DHT22;14206;50.202;10.948;2022-10-15T17:22:33;17.20;96.60
26541;DHT22;14206;50.202;10.948;2022-10-15T17:25:01;17.20;96.60
26541;DHT22;14206;50.202;10.948;2022-10-15T17:27:31;17.20;96.60
26541;DHT22;14206;50.202;10.948;2022-10-15T17:30:01;17.10;96.60
26541;DHT22;14206;50.202;10.948;2022-10-15T17:32:28;17.10;96.60
26541;DHT22;14206;50.202;10.948;2022-10-15T17:34:54;17.10;96.60
26541;DHT22;14206;50.202;10.948;2022-10-15T17:37:28;17.10;96.60
26541;DHT22;14206;50.202;10.948;2022-10-15T17:40:04;17.10;96.60
26541;DHT22;14206;50.202;10.948;2022-10-15T17:42:31;17.00;96.60
26541;DHT22;14206;50.202;10.948;2022-10-15T17:44:58;17.00;96.60
26541;DHT22;14206;50.202;10.948;2022-10-15T17:47:25;17.00;96.60
26541;DHT22;14206;50.202;10.948;2022-10-15T17:49:53;16.90;96.60